createdAt,value
2022-11-12T00:02:01.977Z,3.72
2022-11-12T00:05:21.972Z,3.74
2022-11-12T00:08:41.964Z,3.69
2022-11-12T00:12:02.190Z,3.68
2022-11-12T00:15:22.102Z,3.62
2022-11-12T00:18:41.988Z,3.54
2022-11-12T00:22:02.300Z,3.52
2022-11-12T00:25:22.256Z,3.52
2022-11-12T00:28:42.128Z,3.49
2022-11-12T00:32:02.181Z,3.47
2022-11-12T00:35:22.291Z,3.42
2022-11-12T00:38:42.409Z,3.38
2022-11-12T00:42:03.383Z,3.35
2022-11-12T00:45:23.695Z,3.34
2022-11-12T00:48:43.763Z,3.38
2022-11-12T00:52:04.571Z,3.36
2022-11-12T00:55:24.615Z,3.37
2022-11-12T00:58:45.007Z,3.37
2022-11-12T01:02:05.287Z,3.36
2022-11-12T01:05:25.502Z,3.40
2022-11-12T01:08:45.796Z,3.36
2022-11-12T01:12:05.742Z,3.34
2022-11-12T01:15:25.901Z,3.34
2022-11-12T01:18:46.448Z,3.28
2022-11-12T01:22:06.548Z,3.21
2022-11-12T01:25:26.800Z,3.18
2022-11-12T01:28:47.215Z,3.18
2022-11-12T01:32:07.519Z,3.20
2022-11-12T01:35:27.429Z,3.21
2022-11-12T01:38:49.193Z,3.21
2022-11-12T01:42:10.067Z,3.21
2022-11-12T01:45:30.389Z,3.18
2022-11-12T01:48:58.796Z,3.13
2022-11-12T01:52:28.426Z,3.12
2022-11-12T01:55:49.222Z,3.05
2022-11-12T01:59:15.839Z,3.02
2022-11-12T02:02:36.767Z,2.94
2022-11-12T02:06:08.070Z,2.95
2022-11-12T02:09:28.856Z,2.93
2022-11-12T02:13:10.643Z,2.88
2022-11-12T02:16:36.005Z,2.86
2022-11-12T02:19:59.532Z,2.89
2022-11-12T02:23:19.497Z,2.94
2022-11-12T02:26:48.952Z,2.98
2022-11-12T02:30:09.264Z,2.95
2022-11-12T02:33:29.155Z,2.95
2022-11-12T02:36:49.353Z,2.88
2022-11-12T02:40:09.965Z,2.84
2022-11-12T02:43:29.826Z,2.79
2022-11-12T02:46:50.098Z,2.77
2022-11-12T02:50:10.329Z,2.75
2022-11-12T02:53:32.431Z,2.73
2022-11-12T02:56:52.658Z,2.76
2022-11-12T03:00:14.103Z,2.73
2022-11-12T03:03:34.208Z,2.72
2022-11-12T03:06:54.532Z,2.67
2022-11-12T03:10:14.427Z,2.65
2022-11-12T03:13:34.547Z,2.62
2022-11-12T03:16:54.764Z,2.55
2022-11-12T03:20:14.759Z,2.53
2022-11-12T03:23:35.008Z,2.53
2022-11-12T03:26:55.262Z,2.49
2022-11-12T03:30:15.411Z,2.44
2022-11-12T03:33:38.186Z,2.39
2022-11-12T03:36:58.212Z,2.40
2022-11-12T03:40:18.911Z,2.33
2022-11-12T03:43:39.127Z,2.32
2022-11-12T03:46:59.563Z,2.32
2022-11-12T03:50:22.523Z,2.30
2022-11-12T03:53:42.874Z,2.34
2022-11-12T03:57:02.790Z,2.30
2022-11-12T04:00:25.015Z,2.29
2022-11-12T04:03:44.943Z,2.30
2022-11-12T04:07:23.358Z,2.29
2022-11-12T04:10:43.677Z,2.24
2022-11-12T04:14:03.889Z,2.25
2022-11-12T04:17:44.423Z,2.25
2022-11-12T04:21:23.584Z,2.23
2022-11-12T04:25:02.435Z,2.23
2022-11-12T04:28:22.637Z,2.25
2022-11-12T04:31:42.635Z,2.22
2022-11-12T04:35:03.725Z,2.19
2022-11-12T04:38:24.090Z,2.22
2022-11-12T04:42:02.880Z,2.21
2022-11-12T04:45:23.513Z,2.19
2022-11-12T04:48:43.528Z,2.19
2022-11-12T04:52:06.420Z,2.14
2022-11-12T04:55:26.439Z,2.15
2022-11-12T04:58:46.795Z,2.11
2022-11-12T05:02:06.893Z,2.10
2022-11-12T05:05:32.529Z,2.10
2022-11-12T05:08:53.616Z,2.05
2022-11-12T05:12:13.539Z,2.03
2022-11-12T05:15:33.674Z,2.07
2022-11-12T05:18:53.573Z,2.05
2022-11-12T05:22:33.356Z,2.04
2022-11-12T05:25:53.595Z,2.03
2022-11-12T05:29:13.967Z,2.02
2022-11-12T05:32:34.392Z,1.98
2022-11-12T05:35:56.455Z,1.93
2022-11-12T05:39:16.738Z,1.89
2022-11-12T05:42:36.831Z,1.85
2022-11-12T05:45:56.640Z,1.81
2022-11-12T05:49:17.812Z,1.75
2022-11-12T05:52:38.042Z,1.79
2022-11-12T05:56:05.112Z,1.73
2022-11-12T05:59:24.992Z,1.67
2022-11-12T06:02:45.784Z,1.64
2022-11-12T06:06:06.352Z,1.61
2022-11-12T06:09:26.236Z,1.61
2022-11-12T06:12:46.182Z,1.62
2022-11-12T06:16:07.401Z,1.63
2022-11-12T06:19:27.320Z,1.61
2022-11-12T06:22:47.326Z,1.60
2022-11-12T06:26:07.403Z,1.60
2022-11-12T06:29:28.046Z,1.61
2022-11-12T06:32:49.161Z,1.59
2022-11-12T06:36:11.433Z,1.62
2022-11-12T06:39:31.487Z,1.68
2022-11-12T06:42:57.095Z,1.72
2022-11-12T06:46:18.087Z,1.79
2022-11-12T06:49:38.407Z,1.84
2022-11-12T06:52:59.302Z,1.88
2022-11-12T06:56:19.426Z,1.98
2022-11-12T06:59:39.394Z,2.05
2022-11-12T07:02:59.560Z,2.12
2022-11-12T07:06:20.548Z,2.20
2022-11-12T07:09:41.079Z,2.33
2022-11-12T07:13:01.228Z,2.46
2022-11-12T07:16:22.400Z,2.58
2022-11-12T07:19:42.491Z,2.73
2022-11-12T07:23:02.647Z,2.82
2022-11-12T07:26:25.342Z,2.96
2022-11-12T07:29:48.637Z,3.07
2022-11-12T07:33:08.906Z,3.17
2022-11-12T07:36:28.783Z,3.27
2022-11-12T07:39:48.962Z,3.40
2022-11-12T07:43:09.031Z,3.55
2022-11-12T07:46:29.068Z,3.73
2022-11-12T07:49:49.250Z,3.86
2022-11-12T07:53:09.003Z,4.00
2022-11-12T07:56:29.213Z,4.15
2022-11-12T07:59:49.084Z,4.26
2022-11-12T08:03:09.040Z,4.30
2022-11-12T08:06:30.927Z,4.26
2022-11-12T08:09:51.138Z,4.24
2022-11-12T08:13:11.539Z,4.33
2022-11-12T08:16:31.654Z,4.38
2022-11-12T08:19:55.218Z,4.42
2022-11-12T08:23:15.181Z,4.45
2022-11-12T08:26:35.318Z,4.43
2022-11-12T08:29:55.278Z,4.33
2022-11-12T08:33:15.567Z,4.44
2022-11-12T08:36:35.894Z,4.67
2022-11-12T08:39:55.871Z,4.79
2022-11-12T08:43:15.912Z,4.73
2022-11-12T08:46:36.073Z,4.77
2022-11-12T08:49:56.036Z,4.74
2022-11-12T08:53:15.943Z,4.79
2022-11-12T08:56:35.823Z,5.11
2022-11-12T08:59:55.979Z,5.29
2022-11-12T09:03:18.886Z,5.50
2022-11-12T09:06:38.824Z,5.67
2022-11-12T09:10:01.579Z,5.79
2022-11-12T09:13:21.844Z,5.87
2022-11-12T09:16:41.743Z,5.94
2022-11-12T09:20:01.936Z,5.96
2022-11-12T09:23:22.170Z,5.68
2022-11-12T09:26:42.480Z,5.62
2022-11-12T09:30:02.960Z,5.68
2022-11-12T09:33:30.192Z,5.65
2022-11-12T09:36:50.531Z,5.77
2022-11-12T09:40:18.131Z,5.89
2022-11-12T09:44:01.855Z,5.97
2022-11-12T09:47:51.158Z,6.12
2022-11-12T09:51:18.508Z,6.21
2022-11-12T09:54:38.844Z,6.22
2022-11-12T09:57:58.936Z,6.43
2022-11-12T10:01:38.722Z,6.66
2022-11-12T10:05:26.634Z,6.89
2022-11-12T10:09:11.929Z,7.07
2022-11-12T10:12:46.772Z,7.25
2022-11-12T10:16:40.888Z,7.46
2022-11-12T10:20:38.788Z,7.75
2022-11-12T10:24:00.980Z,7.80
2022-11-12T10:27:26.097Z,7.74
2022-11-12T10:30:46.847Z,7.59
2022-11-12T10:34:21.347Z,7.40
2022-11-12T10:37:49.358Z,7.42
2022-11-12T10:41:33.431Z,7.49
2022-11-12T10:44:53.368Z,7.57
2022-11-12T10:48:27.229Z,7.58
2022-11-12T10:51:59.214Z,7.63
2022-11-12T10:55:28.192Z,7.72
2022-11-12T10:59:13.986Z,7.83
2022-11-12T11:02:34.585Z,7.81
2022-11-12T11:05:56.757Z,7.89
2022-11-12T11:09:18.272Z,7.97
2022-11-12T11:12:38.259Z,8.13
2022-11-12T11:16:02.997Z,8.32
2022-11-12T11:19:27.354Z,8.50
2022-11-12T11:22:53.263Z,8.86
2022-11-12T11:26:29.475Z,9.10
2022-11-12T11:30:05.836Z,8.99
2022-11-12T11:34:03.810Z,8.96
2022-11-12T11:37:27.016Z,9.01
2022-11-12T11:41:03.834Z,9.08
2022-11-12T11:44:36.457Z,9.22
2022-11-12T11:48:14.646Z,9.30
2022-11-12T11:51:48.193Z,9.38
2022-11-12T11:55:25.570Z,9.40
2022-11-12T11:58:56.298Z,9.58
2022-11-12T12:02:49.352Z,9.87
2022-11-12T12:06:26.562Z,9.97
2022-11-12T12:10:34.753Z,9.96
2022-11-12T12:14:32.090Z,10.11
2022-11-12T12:18:28.175Z,10.37
2022-11-12T12:21:51.217Z,10.76
2022-11-12T12:25:22.136Z,10.93
2022-11-12T12:28:49.816Z,10.96
2022-11-12T12:32:24.497Z,11.00
2022-11-12T12:36:08.148Z,11.16
2022-11-12T12:40:03.586Z,10.94
2022-11-12T12:43:34.971Z,10.71
2022-11-12T12:47:00.826Z,10.63
2022-11-12T12:50:22.440Z,10.75
2022-11-12T12:53:42.449Z,10.73
2022-11-12T12:57:31.466Z,10.77
2022-11-12T13:00:55.433Z,10.81
2022-11-12T13:04:15.606Z,10.65
2022-11-12T13:07:42.713Z,10.54
2022-11-12T13:11:02.913Z,10.52
2022-11-12T13:14:31.610Z,10.42
2022-11-12T13:17:51.658Z,10.10
2022-11-12T13:21:11.745Z,10.15
2022-11-12T13:25:03.096Z,10.15
2022-11-12T13:28:23.461Z,10.30
2022-11-12T13:31:43.711Z,10.32
2022-11-12T13:35:22.096Z,10.39
2022-11-12T13:38:42.099Z,10.44
2022-11-12T13:42:47.096Z,10.00
2022-11-12T13:46:07.207Z,9.82
2022-11-12T13:49:27.298Z,9.75
2022-11-12T13:52:48.315Z,9.57
2022-11-12T13:56:11.821Z,9.40
2022-11-12T13:59:31.995Z,9.41
2022-11-12T14:03:06.351Z,9.51
2022-11-12T14:06:39.029Z,9.39
2022-11-12T14:10:19.196Z,9.42
2022-11-12T14:14:07.305Z,9.55
2022-11-12T14:17:46.295Z,9.64
2022-11-12T14:21:10.956Z,9.65
2022-11-12T14:24:32.895Z,9.44
2022-11-12T14:27:55.212Z,9.20
2022-11-12T14:31:23.281Z,8.99
2022-11-12T14:34:43.498Z,8.75
2022-11-12T14:38:12.075Z,8.37
2022-11-12T14:41:37.121Z,8.30
2022-11-12T14:44:57.478Z,8.28
2022-11-12T14:48:18.239Z,8.24
2022-11-12T14:51:48.358Z,8.10
2022-11-12T14:55:15.362Z,7.96
2022-11-12T14:58:39.760Z,7.88
2022-11-12T15:02:29.638Z,7.82
2022-11-12T15:06:09.747Z,7.64
2022-11-12T15:09:35.622Z,7.59
2022-11-12T15:13:17.673Z,7.73
2022-11-12T15:16:43.148Z,7.69
2022-11-12T15:20:06.766Z,7.71
2022-11-12T15:23:27.126Z,7.60
2022-11-12T15:26:50.621Z,7.54
2022-11-12T15:30:16.298Z,7.49
2022-11-12T15:33:36.336Z,7.43
2022-11-12T15:37:11.016Z,7.34
2022-11-12T15:40:33.035Z,7.31
2022-11-12T15:43:53.572Z,7.23
2022-11-12T15:47:22.697Z,7.13
2022-11-12T15:50:42.785Z,7.20
2022-11-12T15:54:03.226Z,7.14
2022-11-12T15:57:28.438Z,7.11
2022-11-12T16:00:48.771Z,7.06
2022-11-12T16:04:11.766Z,7.08
2022-11-12T16:07:31.746Z,7.10
2022-11-12T16:10:51.754Z,7.08
2022-11-12T16:14:13.954Z,7.15
2022-11-12T16:17:33.925Z,7.15
2022-11-12T16:20:54.131Z,7.13
2022-11-12T16:24:14.453Z,7.13
2022-11-12T16:27:36.163Z,7.10
2022-11-12T16:30:56.378Z,7.07
2022-11-12T16:34:16.676Z,7.07
2022-11-12T16:37:38.397Z,7.08
2022-11-12T16:40:58.732Z,6.99
2022-11-12T16:44:18.809Z,6.97
2022-11-12T16:47:47.510Z,6.99
2022-11-12T16:51:17.829Z,6.95
2022-11-12T16:54:37.907Z,6.99
2022-11-12T16:57:57.965Z,6.81
2022-11-12T17:01:29.383Z,6.70
2022-11-12T17:04:49.727Z,6.59
2022-11-12T17:08:10.846Z,6.53
2022-11-12T17:11:30.817Z,6.52
2022-11-12T17:14:51.333Z,6.35
2022-11-12T17:18:11.891Z,6.45
2022-11-12T17:21:31.813Z,6.50
2022-11-12T17:24:54.081Z,6.65
2022-11-12T17:28:14.458Z,6.63
2022-11-12T17:31:35.544Z,6.67
2022-11-12T17:34:55.559Z,6.66
2022-11-12T17:38:15.825Z,6.72
2022-11-12T17:41:35.959Z,6.58
2022-11-12T17:44:55.858Z,6.54
2022-11-12T17:48:16.320Z,6.61
2022-11-12T17:51:37.247Z,6.61
2022-11-12T17:54:57.801Z,6.68
2022-11-12T17:58:17.760Z,6.75
2022-11-12T18:01:38.124Z,6.82
2022-11-12T18:04:58.259Z,6.79
2022-11-12T18:08:18.813Z,6.75
2022-11-12T18:11:48.133Z,6.76
2022-11-12T18:15:08.428Z,6.77
2022-11-12T18:18:29.816Z,6.82
2022-11-12T18:21:50.011Z,6.77
2022-11-12T18:25:10.328Z,6.72
2022-11-12T18:28:30.786Z,6.70
2022-11-12T18:31:50.753Z,6.75
2022-11-12T18:35:11.298Z,6.77
2022-11-12T18:38:35.890Z,6.78
2022-11-12T18:41:55.927Z,6.80
2022-11-12T18:45:16.078Z,6.79
2022-11-12T18:48:38.117Z,6.77
2022-11-12T18:51:58.538Z,6.76
2022-11-12T18:55:21.554Z,6.78
2022-11-12T18:58:41.778Z,6.78
2022-11-12T19:02:01.805Z,6.68
2022-11-12T19:05:22.501Z,6.61
2022-11-12T19:08:42.683Z,6.58
2022-11-12T19:12:03.374Z,6.61
2022-11-12T19:15:26.743Z,6.35
2022-11-12T19:18:47.647Z,6.30
2022-11-12T19:22:07.868Z,6.30
2022-11-12T19:25:27.879Z,6.35
2022-11-12T19:28:48.098Z,6.39
2022-11-12T19:32:08.327Z,6.37
2022-11-12T19:35:28.193Z,6.30
2022-11-12T19:38:53.887Z,6.35
2022-11-12T19:42:13.896Z,6.39
2022-11-12T19:45:34.097Z,6.42
2022-11-12T19:48:54.828Z,6.41
2022-11-12T19:52:14.990Z,6.40
2022-11-12T19:55:39.724Z,6.34
2022-11-12T19:59:00.477Z,6.40
2022-11-12T20:02:20.639Z,6.32
2022-11-12T20:05:40.593Z,6.29
2022-11-12T20:09:00.908Z,6.26
2022-11-12T20:12:21.388Z,6.21
2022-11-12T20:15:41.676Z,6.15
2022-11-12T20:19:02.420Z,6.18
2022-11-12T20:22:22.377Z,6.18
2022-11-12T20:25:43.059Z,6.20
2022-11-12T20:29:03.446Z,6.23
2022-11-12T20:32:23.587Z,6.22
2022-11-12T20:35:44.227Z,6.14
2022-11-12T20:39:04.696Z,6.10
2022-11-12T20:42:25.044Z,6.13
2022-11-12T20:45:51.015Z,6.01
2022-11-12T20:49:10.872Z,5.79
2022-11-12T20:52:31.092Z,5.66
2022-11-12T20:55:50.969Z,5.79
2022-11-12T20:59:10.973Z,5.93
2022-11-12T21:02:31.286Z,5.93
2022-11-12T21:06:00.088Z,5.89
2022-11-12T21:09:20.147Z,5.88
2022-11-12T21:12:40.428Z,5.82
2022-11-12T21:16:00.572Z,5.82
2022-11-12T21:19:20.882Z,5.86
2022-11-12T21:22:45.622Z,5.86
2022-11-12T21:26:09.831Z,5.87
2022-11-12T21:29:29.835Z,5.84
2022-11-12T21:32:50.121Z,5.70
2022-11-12T21:36:15.852Z,5.75
2022-11-12T21:39:36.477Z,5.79
2022-11-12T21:42:56.451Z,5.78
2022-11-12T21:46:19.711Z,5.76
2022-11-12T21:49:39.927Z,5.70
2022-11-12T21:53:00.141Z,5.64
2022-11-12T21:56:20.647Z,5.51
2022-11-12T21:59:40.423Z,5.29
2022-11-12T22:03:00.375Z,5.36
2022-11-12T22:06:23.176Z,5.36
2022-11-12T22:09:43.476Z,5.41
2022-11-12T22:13:25.818Z,5.42
2022-11-12T22:16:43.544Z,5.40
2022-11-12T22:20:04.010Z,5.35
2022-11-12T22:23:23.930Z,5.35
2022-11-12T22:26:43.943Z,5.37
2022-11-12T22:30:04.396Z,5.36
2022-11-12T22:33:24.424Z,5.19
2022-11-12T22:36:44.906Z,5.16
2022-11-12T22:40:10.495Z,5.26
2022-11-12T22:43:33.743Z,5.29
2022-11-12T22:46:53.850Z,5.21
2022-11-12T22:50:14.088Z,5.10
2022-11-12T22:53:34.783Z,5.04
2022-11-12T22:56:55.083Z,5.08
2022-11-12T23:00:15.874Z,5.13
2022-11-12T23:03:36.989Z,5.03
2022-11-12T23:06:56.996Z,4.94
2022-11-12T23:10:16.976Z,4.88
2022-11-12T23:13:37.936Z,4.92
2022-11-12T23:16:59.390Z,4.96
2022-11-12T23:20:19.404Z,4.95
2022-11-12T23:23:39.930Z,4.82
2022-11-12T23:27:01.184Z,4.68
2022-11-12T23:30:21.329Z,4.60
2022-11-12T23:33:45.478Z,4.59
2022-11-12T23:37:05.758Z,4.63
2022-11-12T23:40:30.787Z,4.70
2022-11-12T23:43:52.295Z,4.61
2022-11-12T23:47:12.379Z,4.66
2022-11-12T23:50:32.521Z,4.69
2022-11-12T23:53:52.835Z,4.68
2022-11-12T23:57:13.128Z,4.68
